Veguita, NM (87062)

4:11 AM MDT on August 29, 2014 (GMT -0600)
Belen | Change Station
CLOSE
Current Station
Airport
Location: Belen,
Elevation: 5194 ft
Nearby Weather Stations

Elev 5194 ft 34.65 °N, 106.83 °W | Updated 16 minutes ago

Clear
Clear
58 °F
Feels Like 58 °F
N
6
Wind Variable Wind from East

Today
High -- | Low -- °F
--% Chance of Precip.
Yesterday
High -- | Low -- °F
Precip. -- in
6:37 AM 7:37 PM
Waxing Crescent, 13% visible
Pressure 30.14 in
Visibility 10.0 miles
Clouds Clear
Dew Point 46 °F
Humidity 64%
Rainfall 0.00 in
Snow Depth Not available.
UV 0 out of 12
Pollen 8.40 out of 12
Air Quality Not available.
Flu Activity Not available.
METAR KE80 290955Z AUTO 08005KT 10SM CLR 14/08 A3014 RMK AO2 T01420075

More Conditions Fewer Conditions

Pressure 30.14 in
Visibility 10.0 miles
Clouds Clear
Dew Point 46 °F
Humidity 64%
Rainfall 0.00 in
Snow Depth Not available.
UV 0 out of 12
Pollen 8.40 out of 12
Air Quality Not available.
Flu Activity Not available.
METAR KE80 290955Z AUTO 08005KT 10SM CLR 14/08 A3014 RMK AO2 T01420075

More Conditions Fewer Conditions

10-Day Weather Forecast

Almanac

Astronomy

Aug. 29, 2014 Rise Set
Actual Time 6:37 AM MDT 7:37 PM MDT
Civil Twilight 6:12 AM MDT 8:02 PM MDT
Nautical Twilight 5:41 AM MDT 8:33 PM MDT
Astronomical Twilight 5:09 AM MDT 9:04 PM MDT
Moon 10:18 AM MDT 9:48 PM MDT
Length of Visible Light 13h 50m
Length of Day
12h 59m
Tomorrow will be 2m 2s shorter.
Waxing Crescent, 13% of the Moon is Illuminated
Today
Waxing Crescent
Sep 2
First Quarter
Sep 8
Full
Sep 15
Last Quarter
Sep 24
New

Today's Extremes

State Highs State Lows

Community

WunderPhotos

Upload Photos

1,748,209 photos uploaded!

Nearby

Snow Depth

Station Depth Elevation
Sierra Blanca 2 in 10280 ft
Quemazon 1 in 9500 ft
Rice Park 0 in 8460 ft
Wesner Springs 1 in 11120 ft
Gallegos Peak 1 in 9800 ft

Earthquake Activity

City Distance Mag. Time & Date
No recent earthquake activity has been reported nearby.
Minimum magnitude displayed is 2.5.

Coastal Water Temperatures

Place Temperature
No Stations Reporting

Nearby Weather Stations